createdAt,value
2023-03-06T00:02:02.964Z,2.40
2023-03-06T00:04:29.859Z,2.40
2023-03-06T00:06:56.793Z,2.40
2023-03-06T00:09:23.616Z,2.40
2023-03-06T00:11:50.476Z,2.50
2023-03-06T00:14:17.282Z,2.40
2023-03-06T00:16:44.186Z,2.40
2023-03-06T00:19:11.021Z,2.40
2023-03-06T00:21:40.865Z,2.40
2023-03-06T00:24:08.010Z,2.40
2023-03-06T00:26:35.938Z,2.40
2023-03-06T00:29:02.976Z,2.40
2023-03-06T00:31:29.987Z,2.50
2023-03-06T00:33:56.947Z,2.40
2023-03-06T00:36:23.716Z,2.50
2023-03-06T00:38:50.523Z,2.50
2023-03-06T00:41:17.348Z,2.50
2023-03-06T00:43:44.231Z,2.50
2023-03-06T00:46:11.199Z,2.50
2023-03-06T00:48:38.146Z,2.50
2023-03-06T00:51:05.154Z,2.50
2023-03-06T00:53:31.919Z,2.50
2023-03-06T00:55:58.754Z,2.60
2023-03-06T00:58:25.578Z,2.60
2023-03-06T01:00:53.130Z,2.70
2023-03-06T01:03:19.980Z,2.60
2023-03-06T01:05:46.854Z,2.60
2023-03-06T01:08:13.690Z,2.60
2023-03-06T01:10:40.856Z,2.60
2023-03-06T01:13:07.775Z,2.60
2023-03-06T01:15:35.777Z,2.50
2023-03-06T01:18:02.606Z,2.60
2023-03-06T01:20:29.888Z,2.60
2023-03-06T01:22:56.815Z,2.60
2023-03-06T01:25:25.668Z,2.70
2023-03-06T01:27:53.132Z,2.60
2023-03-06T01:30:20.494Z,2.60
2023-03-06T01:32:48.283Z,2.60
2023-03-06T01:35:15.307Z,2.80
2023-03-06T01:37:42.383Z,2.60
2023-03-06T01:40:11.257Z,2.60
2023-03-06T01:42:38.158Z,2.60
2023-03-06T01:45:09.542Z,2.60
2023-03-06T01:47:36.559Z,2.60
2023-03-06T01:50:06.220Z,2.60
2023-03-06T01:52:39.221Z,2.60
2023-03-06T01:55:10.946Z,2.60
2023-03-06T01:57:42.696Z,2.70
2023-03-06T02:00:15.508Z,2.60
2023-03-06T02:02:46.897Z,2.60
2023-03-06T02:05:14.058Z,2.60
2023-03-06T02:07:42.875Z,2.60
2023-03-06T02:10:10.718Z,2.60
2023-03-06T02:12:40.584Z,2.60
2023-03-06T02:15:07.769Z,2.60
2023-03-06T02:17:35.672Z,2.60
2023-03-06T02:20:08.628Z,2.50
2023-03-06T02:22:42.748Z,2.60
2023-03-06T02:25:34.258Z,2.60
2023-03-06T02:28:01.716Z,2.60
2023-03-06T02:30:29.789Z,2.60
2023-03-06T02:32:57.429Z,2.60
2023-03-06T02:35:27.380Z,2.60
2023-03-06T02:37:57.102Z,2.60
2023-03-06T02:40:24.594Z,2.80
2023-03-06T02:42:56.494Z,2.60
2023-03-06T02:45:33.832Z,2.60
2023-03-06T02:48:00.882Z,2.60
2023-03-06T02:50:27.884Z,2.60
2023-03-06T02:52:55.054Z,2.70
2023-03-06T02:55:21.998Z,2.60
2023-03-06T02:57:49.184Z,2.60
2023-03-06T03:00:16.968Z,2.60
2023-03-06T03:02:44.622Z,2.60
2023-03-06T03:05:11.490Z,3.00
2023-03-06T03:07:38.304Z,2.60
2023-03-06T03:10:05.780Z,2.60
2023-03-06T03:12:33.439Z,2.60
2023-03-06T03:15:00.335Z,2.60
2023-03-06T03:17:27.190Z,2.70
2023-03-06T03:19:54.109Z,2.60
2023-03-06T03:22:20.961Z,2.60
2023-03-06T03:24:48.401Z,2.60
2023-03-06T03:27:15.414Z,2.60
2023-03-06T03:29:42.703Z,2.60
2023-03-06T03:32:09.936Z,2.60
2023-03-06T03:34:36.930Z,2.60
2023-03-06T03:37:03.949Z,2.60
2023-03-06T03:39:30.817Z,2.60
2023-03-06T03:41:57.659Z,2.50
2023-03-06T03:44:24.860Z,2.60
2023-03-06T03:46:51.905Z,2.60
2023-03-06T03:49:18.805Z,2.70
2023-03-06T03:51:45.700Z,2.50
2023-03-06T03:54:12.560Z,2.40
2023-03-06T03:56:40.739Z,2.50
2023-03-06T03:59:08.189Z,2.40
2023-03-06T04:01:35.227Z,2.40
2023-03-06T04:04:02.271Z,2.40
2023-03-06T04:06:29.368Z,2.40
2023-03-06T04:08:56.328Z,2.30
2023-03-06T04:11:23.118Z,2.20
2023-03-06T04:13:50.150Z,2.10
2023-03-06T04:16:17.023Z,2.10
2023-03-06T04:18:44.070Z,2.00
2023-03-06T04:21:10.918Z,1.90
2023-03-06T04:23:37.928Z,1.80
2023-03-06T04:26:05.026Z,1.80
2023-03-06T04:28:31.981Z,1.70
2023-03-06T04:30:58.980Z,1.70
2023-03-06T04:33:25.845Z,1.60
2023-03-06T04:35:52.749Z,1.70
2023-03-06T04:38:19.628Z,1.70
2023-03-06T04:40:46.597Z,1.60
2023-03-06T04:43:13.464Z,1.60
2023-03-06T04:45:40.566Z,1.70
2023-03-06T04:48:07.580Z,1.70
2023-03-06T04:50:35.021Z,1.70
2023-03-06T04:53:03.569Z,1.70
2023-03-06T04:55:31.126Z,1.70
2023-03-06T04:57:59.019Z,1.70
2023-03-06T05:00:31.699Z,1.60
2023-03-06T05:03:00.692Z,1.70
2023-03-06T05:05:28.112Z,1.60
2023-03-06T05:07:55.776Z,1.60
2023-03-06T05:10:23.424Z,1.60
2023-03-06T05:12:50.361Z,1.60
2023-03-06T05:15:17.578Z,1.50
2023-03-06T05:17:45.034Z,1.60
2023-03-06T05:20:12.667Z,1.50
2023-03-06T05:22:39.928Z,1.50
2023-03-06T05:25:07.458Z,1.50
2023-03-06T05:27:34.658Z,1.50
2023-03-06T05:30:01.532Z,1.50
2023-03-06T05:32:28.522Z,1.50
2023-03-06T05:34:55.563Z,1.50
2023-03-06T05:37:23.169Z,1.50
2023-03-06T05:39:50.779Z,1.50
2023-03-06T05:42:18.370Z,1.50
2023-03-06T05:44:45.283Z,1.50
2023-03-06T05:47:12.218Z,1.50
2023-03-06T05:49:39.487Z,1.60
2023-03-06T05:52:08.534Z,1.60
2023-03-06T05:54:36.495Z,1.60
2023-03-06T05:57:05.212Z,1.60
2023-03-06T05:59:33.048Z,1.60
2023-03-06T06:02:00.830Z,1.60
2023-03-06T06:04:28.072Z,1.60
2023-03-06T06:06:57.095Z,1.60
2023-03-06T06:09:24.841Z,1.60
2023-03-06T06:11:57.294Z,1.50
2023-03-06T06:14:24.496Z,1.60
2023-03-06T06:16:51.805Z,1.60
2023-03-06T06:19:20.216Z,1.50
2023-03-06T06:21:50.101Z,1.50
2023-03-06T06:24:18.967Z,1.60
2023-03-06T06:26:46.353Z,1.40
2023-03-06T06:29:13.567Z,1.40
2023-03-06T06:31:41.016Z,1.40
2023-03-06T06:34:09.790Z,1.40
2023-03-06T06:36:37.160Z,1.40
2023-03-06T06:39:04.806Z,1.30
2023-03-06T06:42:02.354Z,1.30
2023-03-06T06:44:19.925Z,1.40
2023-03-06T06:49:34.678Z,1.50
2023-03-06T06:52:01.517Z,1.40
2023-03-06T06:54:28.652Z,1.40
2023-03-06T06:56:55.446Z,1.40
2023-03-06T06:59:23.840Z,1.30
2023-03-06T07:01:52.177Z,1.30
2023-03-06T07:04:19.995Z,1.40
2023-03-06T07:06:47.107Z,1.40
2023-03-06T07:09:14.511Z,1.40
2023-03-06T07:11:41.633Z,1.40
2023-03-06T07:14:08.593Z,1.40
2023-03-06T07:16:35.528Z,1.50
2023-03-06T07:19:02.723Z,1.60
2023-03-06T07:21:29.766Z,1.80
2023-03-06T07:23:57.600Z,1.70
2023-03-06T07:26:28.013Z,1.80
2023-03-06T07:28:55.400Z,1.90
2023-03-06T07:31:25.145Z,1.90
2023-03-06T07:33:53.340Z,1.90
2023-03-06T07:36:21.708Z,1.90
2023-03-06T07:38:48.801Z,2.00
2023-03-06T07:41:16.542Z,2.00
2023-03-06T07:43:45.266Z,2.20
2023-03-06T07:46:13.383Z,2.00
2023-03-06T07:48:41.544Z,2.10
2023-03-06T07:51:20.071Z,2.00
2023-03-06T07:53:50.691Z,2.10
2023-03-06T07:56:17.757Z,2.10
2023-03-06T07:58:46.267Z,2.20
2023-03-06T08:01:16.221Z,2.20
2023-03-06T08:03:43.318Z,2.20
2023-03-06T08:06:15.863Z,2.30
2023-03-06T08:08:44.504Z,2.30
2023-03-06T08:11:13.711Z,2.50
2023-03-06T08:13:41.828Z,2.50
2023-03-06T08:16:10.091Z,2.30
2023-03-06T08:18:39.601Z,2.30
2023-03-06T08:21:12.252Z,2.30
2023-03-06T08:23:39.979Z,2.20
2023-03-06T08:26:28.443Z,2.30
2023-03-06T08:28:57.598Z,2.20
2023-03-06T08:31:32.544Z,2.20
2023-03-06T08:34:02.843Z,2.10
2023-03-06T08:36:29.850Z,2.10
2023-03-06T08:38:57.651Z,2.10
2023-03-06T08:41:24.826Z,2.10
2023-03-06T08:43:52.200Z,2.30
2023-03-06T08:46:21.301Z,2.10
2023-03-06T08:48:48.633Z,2.10
2023-03-06T08:51:16.730Z,2.20
2023-03-06T08:53:44.491Z,2.40
2023-03-06T08:56:20.197Z,2.20
2023-03-06T08:58:48.102Z,2.20
2023-03-06T09:01:17.652Z,2.20
2023-03-06T09:03:44.791Z,2.30
2023-03-06T09:06:12.262Z,2.30
2023-03-06T09:08:43.972Z,2.40
2023-03-06T09:11:15.375Z,2.40
2023-03-06T09:13:43.442Z,2.50
2023-03-06T09:16:11.734Z,2.70
2023-03-06T09:18:41.897Z,2.60
2023-03-06T09:21:10.293Z,2.60
2023-03-06T09:23:39.527Z,2.90
2023-03-06T09:26:07.457Z,2.70
2023-03-06T09:28:39.109Z,2.80
2023-03-06T09:31:15.260Z,2.90
2023-03-06T09:33:42.745Z,3.00
2023-03-06T09:36:18.859Z,3.10
2023-03-06T09:38:47.860Z,3.10
2023-03-06T09:41:26.521Z,3.60
2023-03-06T09:44:04.809Z,3.40
2023-03-06T09:46:42.028Z,3.50
2023-03-06T09:49:36.269Z,3.60
2023-03-06T09:52:28.197Z,3.70
2023-03-06T09:54:59.102Z,3.90
2023-03-06T09:57:33.070Z,4.00
2023-03-06T10:00:05.737Z,4.20
2023-03-06T10:02:49.189Z,4.30
2023-03-06T10:05:27.244Z,4.50
2023-03-06T10:08:03.411Z,4.60
2023-03-06T10:10:44.593Z,4.60
2023-03-06T10:13:41.293Z,4.50
2023-03-06T10:16:31.733Z,4.60
2023-03-06T10:19:05.075Z,4.70
2023-03-06T10:21:52.443Z,4.70
2023-03-06T10:24:40.766Z,4.70
2023-03-06T10:27:37.428Z,4.70
2023-03-06T10:30:23.052Z,4.80
2023-03-06T10:33:08.719Z,4.80
2023-03-06T10:35:50.812Z,4.80
2023-03-06T10:38:22.442Z,4.90
2023-03-06T10:41:08.850Z,5.00
2023-03-06T10:43:36.879Z,5.10
2023-03-06T10:46:05.150Z,5.20
2023-03-06T10:48:36.011Z,5.30
2023-03-06T10:51:19.462Z,5.50
2023-03-06T10:53:51.515Z,5.60
2023-03-06T10:56:39.813Z,5.50
2023-03-06T10:59:23.006Z,5.60
2023-03-06T11:01:58.403Z,5.60
2023-03-06T11:04:36.417Z,5.60
2023-03-06T11:07:14.857Z,5.80
2023-03-06T11:09:43.885Z,6.00
2023-03-06T11:12:23.058Z,6.20
2023-03-06T11:15:08.778Z,6.40
2023-03-06T11:17:54.167Z,6.60
2023-03-06T11:20:52.350Z,6.80
2023-03-06T11:23:23.500Z,6.80
2023-03-06T11:26:08.427Z,7.00
2023-03-06T11:28:58.968Z,7.20
2023-03-06T11:31:37.506Z,7.30
2023-03-06T11:34:18.067Z,7.50
2023-03-06T11:36:47.859Z,7.80
2023-03-06T11:39:30.564Z,8.30
2023-03-06T11:42:05.675Z,8.70
2023-03-06T11:45:11.296Z,9.40
2023-03-06T11:47:43.029Z,10.20
2023-03-06T11:50:16.886Z,10.80
2023-03-06T11:52:52.743Z,10.70
2023-03-06T11:55:35.678Z,10.90
2023-03-06T11:58:35.369Z,11.80
2023-03-06T12:01:20.850Z,12.40
2023-03-06T12:04:07.937Z,12.60
2023-03-06T12:07:07.645Z,11.80
2023-03-06T12:09:58.897Z,11.00
2023-03-06T12:12:37.814Z,10.30
2023-03-06T12:15:42.926Z,9.40
2023-03-06T12:18:29.670Z,8.80
2023-03-06T12:21:05.775Z,8.50
2023-03-06T12:23:50.564Z,8.10
2023-03-06T12:26:42.104Z,7.90
2023-03-06T12:29:28.511Z,8.00
2023-03-06T12:32:17.101Z,7.90
2023-03-06T12:34:59.373Z,7.80
2023-03-06T12:37:50.793Z,7.70
2023-03-06T12:40:46.602Z,7.70
2023-03-06T12:43:32.030Z,7.80
2023-03-06T12:46:28.034Z,8.50
2023-03-06T12:48:57.834Z,9.40
2023-03-06T12:51:25.072Z,10.20
2023-03-06T12:53:52.975Z,10.60
2023-03-06T12:56:21.858Z,10.80
2023-03-06T12:58:51.105Z,11.00
2023-03-06T13:01:33.073Z,11.20
2023-03-06T13:04:06.156Z,10.80
2023-03-06T13:06:39.198Z,10.80
2023-03-06T13:09:42.689Z,10.80
2023-03-06T13:12:39.752Z,11.00
2023-03-06T13:15:27.582Z,11.30
2023-03-06T13:17:54.505Z,10.90
2023-03-06T13:20:27.387Z,10.40
2023-03-06T13:22:54.368Z,9.80
2023-03-06T13:25:21.225Z,9.20
2023-03-06T13:27:54.339Z,9.00
2023-03-06T13:30:39.547Z,8.90
2023-03-06T13:33:27.248Z,8.80
2023-03-06T13:36:29.539Z,8.70
2023-03-06T13:39:09.303Z,8.50
2023-03-06T13:41:43.395Z,8.30
2023-03-06T13:44:25.618Z,8.10
2023-03-06T13:47:08.560Z,8.20
2023-03-06T13:49:35.786Z,8.10
2023-03-06T13:52:19.659Z,8.20
2023-03-06T13:55:09.017Z,8.00
2023-03-06T13:57:56.671Z,8.20
2023-03-06T14:00:55.984Z,8.90
2023-03-06T14:03:34.585Z,9.40
2023-03-06T14:06:01.618Z,9.80
2023-03-06T14:08:32.171Z,10.00
2023-03-06T14:11:05.768Z,10.20
2023-03-06T14:13:47.821Z,10.20
2023-03-06T14:16:21.043Z,10.40
2023-03-06T14:18:49.362Z,10.50
2023-03-06T14:21:32.146Z,10.20
2023-03-06T14:24:01.205Z,10.00
2023-03-06T14:26:34.858Z,10.10
2023-03-06T14:29:03.126Z,9.50
2023-03-06T14:31:37.083Z,9.30
2023-03-06T14:34:06.290Z,9.00
2023-03-06T14:36:43.917Z,8.90
2023-03-06T14:39:36.161Z,8.80
2023-03-06T14:42:06.100Z,8.70
2023-03-06T14:44:33.027Z,8.70
2023-03-06T14:47:21.850Z,8.40
2023-03-06T14:50:09.061Z,8.20
2023-03-06T14:52:36.276Z,8.00
2023-03-06T14:55:03.339Z,7.90
2023-03-06T14:57:30.255Z,7.60
2023-03-06T14:59:59.397Z,7.80
2023-03-06T15:02:29.919Z,7.60
2023-03-06T15:05:04.256Z,7.40
2023-03-06T15:07:33.480Z,7.40
2023-03-06T15:10:01.186Z,7.40
2023-03-06T15:12:30.688Z,7.40
2023-03-06T15:15:03.984Z,7.30
2023-03-06T15:17:32.464Z,7.30
2023-03-06T15:20:01.006Z,7.20
2023-03-06T15:22:31.044Z,7.20
2023-03-06T15:25:19.668Z,7.20
2023-03-06T15:27:55.795Z,7.20
2023-03-06T15:30:28.699Z,7.00
2023-03-06T15:33:19.988Z,6.90
2023-03-06T15:35:52.904Z,6.90
2023-03-06T15:38:35.816Z,6.90
2023-03-06T15:41:20.007Z,6.80
2023-03-06T15:43:47.257Z,6.80
2023-03-06T15:46:14.119Z,6.90
2023-03-06T15:48:54.698Z,6.90
2023-03-06T15:51:22.122Z,6.90
2023-03-06T15:53:49.361Z,6.70
2023-03-06T15:56:21.891Z,6.70
2023-03-06T15:58:48.858Z,6.70
2023-03-06T16:01:17.679Z,6.60
2023-03-06T16:03:45.461Z,6.60
2023-03-06T16:06:26.125Z,6.60
2023-03-06T16:08:53.471Z,6.50
2023-03-06T16:11:44.286Z,6.50
2023-03-06T16:14:21.371Z,6.50
2023-03-06T16:16:49.748Z,6.40
2023-03-06T16:19:27.769Z,6.40
2023-03-06T16:21:56.608Z,6.50
2023-03-06T16:24:26.383Z,6.50
2023-03-06T16:26:54.934Z,6.40
2023-03-06T16:29:27.036Z,6.40
2023-03-06T16:31:55.537Z,6.30
2023-03-06T16:34:22.895Z,6.30
2023-03-06T16:36:50.630Z,6.30
2023-03-06T16:39:20.116Z,6.30
2023-03-06T16:41:47.194Z,6.30
2023-03-06T16:44:15.788Z,6.40
2023-03-06T16:46:50.330Z,6.40
2023-03-06T16:49:29.381Z,6.30
2023-03-06T16:51:56.391Z,6.30
2023-03-06T16:54:26.078Z,6.30
2023-03-06T16:56:52.900Z,6.20
2023-03-06T16:59:19.866Z,6.20
2023-03-06T17:01:46.868Z,6.30
2023-03-06T17:04:13.842Z,6.20
2023-03-06T17:06:41.947Z,6.20
2023-03-06T17:09:10.975Z,6.30
2023-03-06T17:11:43.454Z,6.10
2023-03-06T17:14:10.329Z,6.10
2023-03-06T17:16:40.261Z,6.00
2023-03-06T17:19:07.789Z,5.80
2023-03-06T17:21:35.449Z,5.50
2023-03-06T17:24:04.446Z,5.60
2023-03-06T17:26:31.534Z,5.20
2023-03-06T17:28:58.991Z,5.10
2023-03-06T17:31:27.383Z,5.20
2023-03-06T17:33:59.436Z,5.10
2023-03-06T17:36:31.237Z,4.90
2023-03-06T17:38:59.846Z,4.80
2023-03-06T17:41:27.137Z,4.80
2023-03-06T17:43:58.266Z,4.80
2023-03-06T17:46:25.954Z,4.90
2023-03-06T17:48:53.156Z,4.90
2023-03-06T17:51:20.234Z,4.80
2023-03-06T17:53:47.348Z,4.70
2023-03-06T17:56:14.706Z,4.60
2023-03-06T17:58:41.788Z,4.70
2023-03-06T18:01:17.711Z,4.70
2023-03-06T18:03:46.250Z,4.50
2023-03-06T18:06:13.921Z,4.50
2023-03-06T18:08:41.165Z,4.40
2023-03-06T18:11:09.980Z,4.40
2023-03-06T18:13:39.524Z,4.60
2023-03-06T18:16:07.520Z,4.60
2023-03-06T18:18:34.900Z,4.40
2023-03-06T18:21:10.068Z,4.50
2023-03-06T18:23:38.073Z,4.40
2023-03-06T18:26:28.809Z,4.60
2023-03-06T18:28:58.085Z,4.40
2023-03-06T18:31:49.886Z,4.40
2023-03-06T18:34:17.893Z,4.30
2023-03-06T18:36:47.193Z,4.40
2023-03-06T18:39:15.803Z,4.40
2023-03-06T18:41:42.797Z,4.30
2023-03-06T18:44:17.067Z,4.20
2023-03-06T18:46:44.096Z,4.20
2023-03-06T18:49:12.525Z,4.30
2023-03-06T18:51:39.917Z,4.20
2023-03-06T18:54:07.349Z,4.30
2023-03-06T18:56:34.982Z,4.10
2023-03-06T18:59:06.834Z,4.40
2023-03-06T19:01:34.715Z,4.50
2023-03-06T19:04:02.728Z,4.00
2023-03-06T19:06:30.262Z,4.00
2023-03-06T19:09:01.879Z,4.10
2023-03-06T19:11:30.638Z,4.40
2023-03-06T19:13:58.023Z,4.00
2023-03-06T19:16:27.707Z,3.90
2023-03-06T19:18:55.746Z,3.90
2023-03-06T19:21:25.132Z,3.80
2023-03-06T19:23:52.490Z,4.00
2023-03-06T19:26:19.529Z,3.70
2023-03-06T19:28:48.070Z,3.70
2023-03-06T19:31:21.480Z,3.70
2023-03-06T19:33:49.829Z,3.60
2023-03-06T19:36:18.494Z,3.80
2023-03-06T19:38:45.613Z,3.70
2023-03-06T19:41:13.569Z,3.70
2023-03-06T19:43:42.462Z,3.60
2023-03-06T19:46:13.537Z,3.80
2023-03-06T19:48:42.026Z,3.70
2023-03-06T19:51:09.591Z,4.10
2023-03-06T19:53:37.064Z,3.70
2023-03-06T19:56:18.338Z,3.70
2023-03-06T19:58:45.271Z,3.70
2023-03-06T20:01:14.896Z,3.70
2023-03-06T20:03:47.649Z,3.70
2023-03-06T20:06:18.655Z,3.70
2023-03-06T20:08:46.947Z,3.70
2023-03-06T20:11:26.720Z,3.70
2023-03-06T20:13:53.854Z,3.80
2023-03-06T20:16:20.807Z,4.00
2023-03-06T20:18:47.807Z,3.80
2023-03-06T20:21:15.508Z,3.80
2023-03-06T20:23:43.106Z,3.80
2023-03-06T20:26:12.129Z,3.90
2023-03-06T20:28:40.978Z,3.70
2023-03-06T20:31:09.013Z,3.80
2023-03-06T20:33:35.970Z,3.80
2023-03-06T20:36:03.632Z,3.70
2023-03-06T20:38:30.769Z,3.70
2023-03-06T20:40:58.922Z,3.70
2023-03-06T20:43:25.962Z,3.90
2023-03-06T20:46:00.704Z,3.80
2023-03-06T20:48:28.067Z,3.90
2023-03-06T20:51:25.532Z,3.80
2023-03-06T20:53:55.762Z,3.70
2023-03-06T20:56:30.832Z,4.20
2023-03-06T20:58:58.354Z,3.70
2023-03-06T21:01:30.933Z,4.00
2023-03-06T21:03:58.937Z,3.70
2023-03-06T21:06:28.196Z,3.70
2023-03-06T21:08:56.708Z,3.80
2023-03-06T21:11:24.059Z,3.80
2023-03-06T21:13:52.183Z,3.70
2023-03-06T21:16:21.027Z,3.60
2023-03-06T21:18:48.610Z,3.70
2023-03-06T21:21:18.552Z,3.70
2023-03-06T21:23:46.696Z,3.70
2023-03-06T21:26:25.106Z,4.00
2023-03-06T21:28:52.594Z,3.70
2023-03-06T21:31:21.635Z,3.70
2023-03-06T21:33:49.927Z,3.60
2023-03-06T21:36:18.769Z,3.60
2023-03-06T21:38:47.182Z,3.70
2023-03-06T21:41:19.786Z,3.70
2023-03-06T21:43:47.120Z,3.60
2023-03-06T21:46:14.244Z,3.60
2023-03-06T21:48:44.007Z,3.60
2023-03-06T21:51:30.501Z,3.50
2023-03-06T21:53:57.419Z,3.60
2023-03-06T21:56:25.579Z,3.50
2023-03-06T21:58:52.836Z,3.60
2023-03-06T22:01:26.883Z,3.50
2023-03-06T22:03:54.600Z,3.50
2023-03-06T22:06:24.981Z,3.70
2023-03-06T22:08:52.744Z,3.60
2023-03-06T22:11:21.547Z,3.50
2023-03-06T22:13:49.161Z,3.40
2023-03-06T22:16:17.361Z,3.50
2023-03-06T22:18:46.232Z,3.50
2023-03-06T22:21:15.682Z,3.50
2023-03-06T22:23:43.444Z,3.50
2023-03-06T22:26:12.885Z,3.50
2023-03-06T22:28:40.461Z,3.50
2023-03-06T22:31:10.419Z,3.50
2023-03-06T22:33:37.622Z,3.50
2023-03-06T22:36:07.664Z,3.50
2023-03-06T22:38:36.165Z,3.50
2023-03-06T22:41:03.730Z,3.60
2023-03-06T22:43:31.526Z,3.50
2023-03-06T22:46:13.867Z,3.50
2023-03-06T22:48:41.420Z,3.50
2023-03-06T22:51:20.092Z,3.50
2023-03-06T22:53:48.236Z,3.50
2023-03-06T22:56:17.496Z,3.50
2023-03-06T22:58:44.970Z,3.50
2023-03-06T23:01:15.334Z,3.60
2023-03-06T23:03:44.680Z,3.60
2023-03-06T23:06:13.150Z,3.50
2023-03-06T23:08:40.377Z,3.60
2023-03-06T23:11:10.077Z,3.60
2023-03-06T23:13:37.613Z,3.60
2023-03-06T23:16:06.817Z,3.70
2023-03-06T23:18:35.481Z,3.70
2023-03-06T23:21:10.136Z,3.70
2023-03-06T23:23:38.070Z,3.80
2023-03-06T23:26:06.537Z,3.80
2023-03-06T23:28:35.010Z,3.70
2023-03-06T23:31:10.924Z,3.80
2023-03-06T23:33:38.970Z,3.80
2023-03-06T23:36:11.503Z,3.80
2023-03-06T23:38:39.040Z,3.90
2023-03-06T23:41:08.593Z,3.90
2023-03-06T23:43:36.527Z,3.90
2023-03-06T23:46:04.537Z,3.80
2023-03-06T23:48:31.806Z,3.80
2023-03-06T23:50:58.761Z,3.80
2023-03-06T23:53:26.042Z,3.80
2023-03-06T23:55:53.309Z,3.70
2023-03-06T23:58:22.522Z,3.70
